Time;durP1;ratioP1;P1;durP2;ratioP2;P2;SDS_P1;SDS_P2;PMS_P1;PMS_P2;Temp;Humidity;BMP_temperature;BMP_pressure;BME280_temperature;BME280_humidity;BME280_pressure;Samples;Min_cycle;Max_cycle;Signal;HPM_P1;HPM_P2
2021/10/06 00:00:22;;;;;;;7.90;2.13;;;13.20;1.00;;;;;;5071311;28;20210;-72
2021/10/06 00:02:48;;;;;;;7.90;1.65;;;13.30;1.00;;;;;;5072006;28;20628;-75
2021/10/06 00:05:17;;;;;;;6.07;1.70;;;13.30;1.00;;;;;;5071163;28;20693;-75
2021/10/06 00:07:44;;;;;;;8.85;2.05;;;13.20;1.00;;;;;;5071393;28;20198;-74
2021/10/06 00:10:11;;;;;;;6.05;2.05;;;13.20;1.00;;;;;;5071127;28;20206;-73
2021/10/06 00:12:39;;;;;;;5.60;1.70;;;13.00;1.00;;;;;;5071274;28;20255;-74
2021/10/06 00:15:09;;;;;;;8.25;2.15;;;12.90;1.00;;;;;;5071037;28;20283;-74
2021/10/06 00:17:36;;;;;;;7.53;2.00;;;12.90;1.00;;;;;;5071639;28;20248;-75
2021/10/06 00:20:05;;;;;;;5.22;1.60;;;12.80;1.00;;;;;;5070954;28;20210;-75
2021/10/06 00:22:33;;;;;;;4.97;1.65;;;12.80;1.00;;;;;;5071402;28;20247;-75
2021/10/06 00:25:00;;;;;;;5.55;1.52;;;12.80;1.00;;;;;;5070988;28;20226;-75
2021/10/06 00:27:27;;;;;;;7.05;2.10;;;12.80;1.00;;;;;;5071587;28;20221;-75
2021/10/06 00:29:54;;;;;;;9.50;2.05;;;12.70;1.00;;;;;;5071989;28;20236;-75
2021/10/06 00:32:21;;;;;;;7.93;2.65;;;12.70;1.00;;;;;;5071042;28;20214;-74
2021/10/06 00:34:48;;;;;;;4.15;1.65;;;12.70;1.00;;;;;;5070884;28;20575;-74
2021/10/06 00:37:15;;;;;;;4.78;1.42;;;12.70;1.00;;;;;;5070602;28;20260;-74
2021/10/06 00:39:44;;;;;;;6.72;1.55;;;12.70;1.00;;;;;;5070952;28;20670;-75
2021/10/06 00:42:11;;;;;;;6.25;2.20;;;12.70;1.00;;;;;;5070505;28;20268;-74
2021/10/06 00:44:39;;;;;;;6.03;1.50;;;12.70;1.00;;;;;;5070808;28;20623;-75
2021/10/06 00:47:12;;;;;;;7.47;1.33;;;12.80;1.00;;;;;;5070777;28;20213;-75
2021/10/06 00:49:39;;;;;;;10.52;1.40;;;12.90;1.00;;;;;;5070750;28;20271;-75
2021/10/06 00:52:06;;;;;;;4.10;1.65;;;13.00;1.00;;;;;;5070413;28;20290;-75
2021/10/06 00:54:36;;;;;;;13.57;1.45;;;13.10;1.00;;;;;;5070938;28;20248;-83
2021/10/06 00:57:04;;;;;;;4.88;1.63;;;13.00;1.00;;;;;;5070415;28;20210;-81
2021/10/06 00:59:32;;;;;;;3.60;2.08;;;13.00;1.00;;;;;;5070923;28;20578;-75
2021/10/06 01:01:59;;;;;;;8.10;2.55;;;13.10;1.00;;;;;;5071127;28;20255;-75
2021/10/06 01:04:26;;;;;;;9.13;1.65;;;13.10;1.00;;;;;;5069877;28;20208;-73
2021/10/06 01:06:55;;;;;;;13.40;2.33;;;13.10;1.00;;;;;;5070573;28;20286;-72
2021/10/06 01:09:26;;;;;;;8.27;1.58;;;13.00;1.00;;;;;;5070171;28;20688;-72
2021/10/06 01:11:54;;;;;;;7.55;2.15;;;13.00;1.00;;;;;;5070372;28;20731;-72
2021/10/06 01:14:23;;;;;;;5.25;1.20;;;12.90;1.00;;;;;;5070277;28;20199;-72
2021/10/06 01:16:50;;;;;;;7.60;1.80;;;13.00;1.00;;;;;;5070441;28;20209;-72
2021/10/06 01:19:22;;;;;;;5.75;1.58;;;13.00;1.00;;;;;;5069669;28;20265;-72
2021/10/06 01:21:50;;;;;;;7.63;1.58;;;13.00;1.00;;;;;;5070808;28;20213;-72
2021/10/06 01:24:17;;;;;;;3.97;2.10;;;13.00;1.00;;;;;;5070147;28;20244;-72
2021/10/06 01:26:45;;;;;;;3.92;1.33;;;12.90;1.00;;;;;;5070664;28;20279;-72
2021/10/06 01:29:14;;;;;;;8.15;2.08;;;13.10;1.00;;;;;;5069713;28;20567;-72
2021/10/06 01:31:42;;;;;;;5.72;1.13;;;13.10;1.00;;;;;;5069176;28;20225;-72
2021/10/06 01:34:09;;;;;;;11.13;1.77;;;13.10;1.00;;;;;;5069480;28;20210;-74
2021/10/06 01:36:37;;;;;;;8.45;1.90;;;13.20;1.00;;;;;;5070516;28;20206;-75
2021/10/06 01:39:07;;;;;;;6.55;2.30;;;13.20;1.00;;;;;;5070214;28;20202;-72
2021/10/06 01:41:34;;;;;;;9.23;1.90;;;13.20;1.00;;;;;;5070300;28;20249;-72
2021/10/06 01:44:01;;;;;;;7.32;1.95;;;13.20;1.00;;;;;;5069998;28;20205;-75
2021/10/06 01:46:29;;;;;;;4.95;1.20;;;13.20;1.00;;;;;;5070503;28;20298;-75
2021/10/06 01:48:56;;;;;;;5.18;2.13;;;13.20;1.00;;;;;;5070736;28;20210;-75
2021/10/06 01:51:24;;;;;;;8.30;1.27;;;13.20;1.00;;;;;;5069928;28;20206;-75
2021/10/06 01:53:51;;;;;;;3.85;1.20;;;13.20;1.00;;;;;;5070283;28;20213;-76
2021/10/06 01:56:19;;;;;;;4.13;1.50;;;13.20;1.00;;;;;;5068646;28;20259;-76
2021/10/06 01:58:46;;;;;;;9.75;1.83;;;13.20;1.00;;;;;;5070220;28;20202;-76
2021/10/06 02:01:14;;;;;;;8.13;1.73;;;13.20;1.00;;;;;;5069762;28;20301;-76
2021/10/06 02:03:41;;;;;;;5.00;1.70;;;13.20;1.00;;;;;;5069813;28;20252;-76
2021/10/06 02:06:08;;;;;;;7.05;1.80;;;13.20;1.00;;;;;;5069910;28;20230;-76
2021/10/06 02:08:35;;;;;;;8.25;2.28;;;13.20;1.00;;;;;;5069885;28;20205;-76
2021/10/06 02:11:02;;;;;;;6.78;2.53;;;13.20;1.00;;;;;;5069325;28;20210;-76
2021/10/06 02:13:31;;;;;;;5.35;1.98;;;13.30;1.00;;;;;;5070310;28;20206;-76
2021/10/06 02:15:58;;;;;;;10.00;2.85;;;13.30;1.00;;;;;;5072795;28;20214;-73
2021/10/06 02:18:25;;;;;;;9.45;2.78;;;13.30;1.00;;;;;;5074028;28;20202;-73
2021/10/06 02:20:52;;;;;;;10.32;2.03;;;13.30;1.00;;;;;;5073947;28;20209;-73
2021/10/06 02:23:19;;;;;;;3.70;1.25;;;13.30;1.00;;;;;;5073621;28;20217;-75
2021/10/06 02:25:47;;;;;;;6.80;1.25;;;13.30;1.00;;;;;;5073361;28;20647;-75
2021/10/06 02:28:14;;;;;;;8.48;2.58;;;13.30;1.00;;;;;;5073627;28;20210;-75
2021/10/06 02:30:42;;;;;;;4.00;1.20;;;13.30;1.00;;;;;;5073520;28;20666;-75
2021/10/06 02:33:10;;;;;;;5.20;1.40;;;13.20;1.00;;;;;;5073087;28;20202;-75
2021/10/06 02:35:37;;;;;;;3.85;1.65;;;13.20;1.00;;;;;;5073636;28;20206;-77
2021/10/06 02:38:04;;;;;;;5.28;1.20;;;13.20;1.00;;;;;;5072890;28;20202;-76
2021/10/06 02:40:31;;;;;;;8.63;1.90;;;13.10;1.00;;;;;;5073812;28;20259;-76
2021/10/06 02:42:58;;;;;;;6.53;1.10;;;13.00;1.00;;;;;;5073506;28;20209;-78
2021/10/06 02:45:25;;;;;;;10.30;2.63;;;13.00;1.00;;;;;;5073173;28;20267;-77
2021/10/06 02:47:53;;;;;;;8.90;1.27;;;13.00;1.00;;;;;;5073419;28;20210;-79
2021/10/06 02:50:22;;;;;;;2.40;1.25;;;12.90;1.00;;;;;;5072673;28;20252;-76
2021/10/06 02:52:49;;;;;;;3.05;1.20;;;13.00;1.00;;;;;;5073027;28;20255;-77
2021/10/06 02:55:16;;;;;;;7.85;1.20;;;13.00;1.00;;;;;;5067592;28;20203;-78
2021/10/06 02:57:43;;;;;;;3.70;1.83;;;13.10;1.00;;;;;;5065413;28;20210;-79
2021/10/06 03:00:12;;;;;;;6.82;1.70;;;13.10;1.00;;;;;;5072546;28;20571;-79
2021/10/06 03:02:40;;;;;;;10.55;2.00;;;13.00;1.00;;;;;;5073018;28;20207;-76
2021/10/06 03:05:10;;;;;;;5.90;0.98;;;12.90;1.00;;;;;;5072952;28;20206;-82
2021/10/06 03:07:37;;;;;;;4.65;1.30;;;13.10;1.00;;;;;;5072945;28;20234;-80
2021/10/06 03:10:06;;;;;;;7.88;2.50;;;13.10;1.00;;;;;;5072676;28;20267;-80
2021/10/06 03:12:33;;;;;;;4.97;2.45;;;13.10;1.00;;;;;;5073203;28;20206;-82
2021/10/06 03:15:00;;;;;;;7.03;1.58;;;13.10;1.00;;;;;;5073162;28;20685;-85
2021/10/06 03:17:28;;;;;;;6.18;1.27;;;13.10;1.00;;;;;;5073612;28;20206;-85
2021/10/06 03:19:55;;;;;;;3.85;1.27;;;13.10;1.00;;;;;;5073454;28;20206;-92
2021/10/06 03:22:23;;;;;;;4.38;1.30;;;13.20;1.00;;;;;;5067116;28;20236;-84
2021/10/06 03:24:50;;;;;;;4.50;1.67;;;13.10;1.00;;;;;;5080484;28;20257;-77
2021/10/06 03:27:17;;;;;;;4.80;1.15;;;13.10;1.00;;;;;;5072050;28;20260;-81
2021/10/06 03:29:45;;;;;;;4.15;1.20;;;13.10;1.00;;;;;;5087015;28;20645;-84
2021/10/06 03:32:12;;;;;;;2.45;1.10;;;13.10;1.00;;;;;;5091348;28;20201;-78
2021/10/06 03:34:39;;;;;;;5.82;2.20;;;13.00;1.00;;;;;;5073528;28;20601;-77
2021/10/06 03:37:07;;;;;;;7.40;1.73;;;12.90;1.00;;;;;;5070251;28;20681;-78
2021/10/06 03:39:35;;;;;;;4.63;1.10;;;12.90;1.00;;;;;;5077592;28;20202;-81
2021/10/06 03:42:02;;;;;;;4.03;1.23;;;13.00;1.00;;;;;;5080966;28;20209;-79
2021/10/06 03:44:29;;;;;;;4.57;1.58;;;12.90;1.00;;;;;;5077355;28;20339;-79
2021/10/06 03:46:57;;;;;;;6.47;1.27;;;12.80;1.00;;;;;;5080112;28;20225;-78
2021/10/06 03:49:24;;;;;;;6.63;1.70;;;12.80;1.00;;;;;;5076518;28;20202;-79
2021/10/06 03:51:53;;;;;;;5.80;1.42;;;12.80;1.00;;;;;;5075899;28;20206;-81
2021/10/06 03:54:20;;;;;;;8.10;1.80;;;12.60;1.00;;;;;;5075043;28;20308;-80
2021/10/06 03:56:48;;;;;;;7.85;1.77;;;12.60;1.00;;;;;;5075319;28;20263;-79
2021/10/06 03:59:15;;;;;;;3.70;1.55;;;12.60;1.00;;;;;;5069666;28;20206;-80
2021/10/06 04:01:42;;;;;;;4.30;1.80;;;12.50;1.00;;;;;;5072319;28;20611;-80
2021/10/06 04:04:09;;;;;;;5.78;1.52;;;12.50;1.00;;;;;;5074128;28;20349;-79
2021/10/06 04:06:36;;;;;;;7.10;1.50;;;12.50;1.00;;;;;;5072933;28;20225;-81
2021/10/06 04:09:03;;;;;;;5.95;2.72;;;12.50;1.00;;;;;;5072131;28;20206;-81
2021/10/06 04:11:31;;;;;;;5.13;1.60;;;12.50;1.00;;;;;;5071984;28;20206;-80
2021/10/06 04:14:00;;;;;;;11.38;1.95;;;12.60;1.00;;;;;;5085689;28;20282;-79
2021/10/06 04:16:27;;;;;;;7.32;1.73;;;12.60;1.00;;;;;;5092056;28;20266;-80
2021/10/06 04:18:54;;;;;;;4.97;1.45;;;12.60;1.00;;;;;;5090603;28;20240;-79
2021/10/06 04:21:21;;;;;;;3.00;1.17;;;12.50;1.00;;;;;;5088896;28;20251;-79
2021/10/06 04:23:48;;;;;;;3.90;1.27;;;12.40;1.00;;;;;;5089693;28;20297;-78
2021/10/06 04:26:15;;;;;;;8.05;2.20;;;12.40;1.00;;;;;;5086303;28;20354;-86
2021/10/06 04:28:42;;;;;;;4.68;1.45;;;12.40;1.00;;;;;;5085387;28;20259;-82
2021/10/06 04:31:10;;;;;;;5.07;1.70;;;12.40;1.00;;;;;;5083831;28;20264;-82
2021/10/06 04:33:38;;;;;;;4.68;1.30;;;12.50;1.00;;;;;;5088352;28;20267;-81
2021/10/06 04:36:06;;;;;;;4.50;1.70;;;12.50;1.00;;;;;;5083071;28;20208;-78
2021/10/06 04:38:33;;;;;;;4.78;1.17;;;12.60;1.00;;;;;;5086560;28;20201;-79
2021/10/06 04:41:01;;;;;;;3.83;1.00;;;12.50;1.00;;;;;;5082793;28;20210;-78
2021/10/06 04:43:28;;;;;;;7.22;2.10;;;12.60;1.00;;;;;;5076890;28;20208;-78
2021/10/06 04:45:55;;;;;;;4.63;1.10;;;12.60;1.00;;;;;;5075397;28;20202;-78
2021/10/06 04:48:23;;;;;;;5.55;1.40;;;12.60;1.00;;;;;;5083877;28;20229;-78
2021/10/06 04:50:50;;;;;;;6.72;1.50;;;12.70;1.00;;;;;;5086215;28;20213;-79
2021/10/06 04:53:18;;;;;;;2.90;1.05;;;12.70;1.00;;;;;;5083492;28;20739;-81
2021/10/06 04:55:45;;;;;;;8.63;1.65;;;12.70;1.00;;;;;;5086160;28;20622;-79
2021/10/06 04:58:12;;;;;;;5.57;1.02;;;12.60;1.00;;;;;;5084636;28;20213;-78
2021/10/06 05:00:39;;;;;;;3.20;0.90;;;12.70;1.00;;;;;;5073599;28;20202;-80
2021/10/06 05:03:07;;;;;;;4.75;1.60;;;12.80;1.00;;;;;;5070196;28;20210;-78
2021/10/06 05:05:36;;;;;;;5.57;1.55;;;12.90;1.00;;;;;;5070660;28;20302;-78
2021/10/06 05:08:04;;;;;;;5.78;1.65;;;12.80;1.00;;;;;;5070356;28;20308;-78
2021/10/06 05:10:31;;;;;;;1.48;0.90;;;12.70;1.00;;;;;;5070555;28;20209;-77
2021/10/06 05:12:58;;;;;;;6.15;1.50;;;12.50;1.00;;;;;;5071056;28;20772;-77
2021/10/06 05:15:25;;;;;;;3.88;1.58;;;12.50;1.00;;;;;;5068828;28;20198;-79
2021/10/06 05:17:53;;;;;;;6.53;1.60;;;12.50;1.00;;;;;;5065604;28;20214;-79
2021/10/06 05:20:20;;;;;;;5.30;1.73;;;12.50;1.00;;;;;;5065353;28;20631;-81
2021/10/06 05:22:48;;;;;;;5.28;1.55;;;12.50;1.00;;;;;;5064919;28;20721;-76
2021/10/06 05:25:15;;;;;;;5.75;1.80;;;12.60;1.00;;;;;;5064521;28;20264;-78
2021/10/06 05:27:42;;;;;;;4.93;1.63;;;12.60;1.00;;;;;;5064441;28;20280;-81
2021/10/06 05:30:12;;;;;;;5.40;1.80;;;12.70;1.00;;;;;;5066733;28;20581;-77
2021/10/06 05:32:40;;;;;;;10.25;2.40;;;12.60;1.00;;;;;;5070055;28;20202;-78
2021/10/06 05:35:08;;;;;;;4.65;1.90;;;12.60;1.00;;;;;;5070152;28;20255;-77
2021/10/06 05:37:35;;;;;;;6.13;2.00;;;12.60;1.00;;;;;;5070731;28;20271;-77
2021/10/06 05:40:04;;;;;;;8.82;2.35;;;12.70;1.00;;;;;;5069548;28;20210;-77
2021/10/06 05:42:32;;;;;;;4.82;2.53;;;12.70;1.00;;;;;;5070202;28;20641;-78
2021/10/06 05:44:59;;;;;;;6.55;2.55;;;12.70;1.00;;;;;;5070839;28;20202;-77
2021/10/06 05:47:26;;;;;;;14.35;2.58;;;12.70;1.00;;;;;;5070317;28;20255;-77
2021/10/06 05:49:54;;;;;;;5.82;2.22;;;12.70;1.00;;;;;;5074141;28;20202;-78
2021/10/06 05:52:21;;;;;;;10.75;2.58;;;12.60;1.00;;;;;;5078839;28;20506;-79
2021/10/06 05:54:49;;;;;;;5.32;2.60;;;12.70;1.00;;;;;;5078576;28;20264;-77
2021/10/06 05:57:18;;;;;;;6.65;2.85;;;12.60;1.00;;;;;;5081680;28;20624;-77
2021/10/06 05:59:45;;;;;;;5.25;2.80;;;12.70;1.00;;;;;;5079396;28;20327;-75
2021/10/06 06:02:12;;;;;;;9.30;3.40;;;12.70;1.00;;;;;;5091786;28;20255;-78
2021/10/06 06:04:39;;;;;;;6.40;2.38;;;12.70;1.00;;;;;;5096298;28;20197;-77
2021/10/06 06:07:06;;;;;;;4.95;2.40;;;12.60;1.00;;;;;;5091213;28;20230;-79
2021/10/06 06:09:33;;;;;;;4.47;2.50;;;12.60;1.00;;;;;;5069311;28;20205;-78
2021/10/06 06:12:01;;;;;;;6.65;2.90;;;12.70;1.00;;;;;;5094746;28;20205;-78
2021/10/06 06:14:30;;;;;;;6.35;2.65;;;12.70;1.00;;;;;;5093069;28;20205;-77
2021/10/06 06:16:57;;;;;;;7.90;2.40;;;12.70;1.00;;;;;;5094390;28;20220;-77
2021/10/06 06:19:24;;;;;;;7.50;2.70;;;12.70;1.00;;;;;;5088174;28;20205;-77
2021/10/06 06:21:51;;;;;;;6.35;2.78;;;12.70;1.00;;;;;;5093138;28;20213;-77
2021/10/06 06:24:18;;;;;;;5.18;2.60;;;12.60;1.00;;;;;;5088351;28;20658;-77
2021/10/06 06:26:45;;;;;;;3.90;2.83;;;12.60;1.00;;;;;;5092467;28;20205;-79
2021/10/06 06:29:12;;;;;;;6.72;2.90;;;12.50;1.00;;;;;;5069086;28;20256;-78
2021/10/06 06:31:41;;;;;;;7.55;3.25;;;12.50;1.00;;;;;;5072830;28;20665;-78
2021/10/06 06:34:08;;;;;;;10.20;2.53;;;12.50;1.00;;;;;;5085518;28;20206;-78
2021/10/06 06:36:35;;;;;;;9.05;2.22;;;12.50;1.00;;;;;;5090101;28;20201;-78
2021/10/06 06:39:03;;;;;;;7.18;2.78;;;12.60;1.00;;;;;;5087972;28;20210;-76
2021/10/06 06:41:30;;;;;;;4.82;1.83;;;12.70;1.00;;;;;;5087668;28;20222;-77
2021/10/06 06:43:57;;;;;;;5.25;3.00;;;12.70;1.00;;;;;;5089293;28;20201;-77
2021/10/06 06:46:23;;;;;;;4.07;1.90;;;12.80;1.00;;;;;;5079669;28;20210;-78
2021/10/06 06:48:52;;;;;;;3.75;2.63;;;12.70;1.00;;;;;;5089092;28;20286;-75
2021/10/06 06:51:19;;;;;;;6.65;2.70;;;12.70;1.00;;;;;;5083118;28;20279;-75
2021/10/06 06:53:46;;;;;;;5.38;2.65;;;12.70;1.00;;;;;;5068733;28;20250;-75
2021/10/06 06:56:13;;;;;;;5.38;2.78;;;12.70;1.00;;;;;;5074567;28;20202;-75
2021/10/06 06:58:40;;;;;;;9.38;2.60;;;12.60;1.00;;;;;;5085770;28;20250;-75
2021/10/06 07:01:07;;;;;;;7.93;2.58;;;12.60;1.00;;;;;;5080648;28;20202;-75
2021/10/06 07:03:33;;;;;;;4.78;3.28;;;12.70;1.00;;;;;;5092900;28;20267;-75
2021/10/06 07:06:02;;;;;;;3.85;1.98;;;12.70;1.00;;;;;;5087409;28;20198;-74
2021/10/06 07:08:29;;;;;;;10.85;2.28;;;12.70;1.00;;;;;;5068896;28;20241;-74
2021/10/06 07:10:56;;;;;;;5.82;2.40;;;12.80;1.00;;;;;;5075058;28;20258;-77
2021/10/06 07:13:23;;;;;;;5.22;2.40;;;12.90;1.00;;;;;;5072007;28;20202;-74
2021/10/06 07:15:50;;;;;;;6.75;2.28;;;13.00;1.00;;;;;;5073672;28;20255;-74
2021/10/06 07:18:17;;;;;;;6.82;2.20;;;13.00;1.00;;;;;;5073442;28;20248;-74
2021/10/06 07:20:44;;;;;;;5.75;2.70;;;13.00;1.00;;;;;;5073724;28;20206;-77
2021/10/06 07:23:12;;;;;;;7.90;3.95;;;13.10;1.00;;;;;;5071385;28;20210;-75
2021/10/06 07:25:39;;;;;;;7.10;2.50;;;13.10;1.00;;;;;;5061968;28;20732;-75
2021/10/06 07:28:07;;;;;;;6.75;2.85;;;13.20;1.00;;;;;;5076578;28;20769;-76
2021/10/06 07:30:35;;;;;;;4.35;2.20;;;13.20;1.00;;;;;;5080222;28;20214;-77
2021/10/06 07:33:02;;;;;;;6.45;2.33;;;13.40;1.00;;;;;;5077094;28;20224;-78
2021/10/06 07:35:29;;;;;;;5.10;2.10;;;13.50;1.00;;;;;;5067543;28;20263;-73
2021/10/06 07:37:56;;;;;;;4.80;2.33;;;13.50;1.00;;;;;;5061136;28;20210;-77
2021/10/06 07:40:25;;;;;;;8.10;2.17;;;13.60;1.00;;;;;;5069741;28;20202;-72
2021/10/06 07:42:52;;;;;;;7.45;2.85;;;13.60;1.00;;;;;;5063523;28;20285;-73
2021/10/06 07:45:19;;;;;;;3.88;2.22;;;13.70;1.00;;;;;;5070337;28;20575;-72
2021/10/06 07:47:46;;;;;;;9.77;2.47;;;13.70;1.00;;;;;;5072938;28;20279;-72
2021/10/06 07:50:13;;;;;;;5.70;3.13;;;13.80;1.00;;;;;;5072673;28;20202;-72
2021/10/06 07:52:40;;;;;;;5.30;2.40;;;13.90;1.00;;;;;;5067869;28;20203;-73
2021/10/06 07:55:08;;;;;;;5.32;2.17;;;14.00;1.00;;;;;;5069740;28;20229;-77
2021/10/06 07:57:37;;;;;;;7.75;2.45;;;14.10;1.00;;;;;;5074150;28;20202;-74
2021/10/06 08:00:06;;;;;;;9.23;2.72;;;14.10;1.00;;;;;;5071893;28;20206;-74
2021/10/06 08:02:33;;;;;;;4.25;2.45;;;14.10;1.00;;;;;;5071956;28;20267;-74
2021/10/06 08:05:00;;;;;;;5.75;2.30;;;14.30;1.00;;;;;;5073033;28;20206;-74
2021/10/06 08:07:27;;;;;;;5.75;3.17;;;14.50;1.00;;;;;;5075773;28;20306;-74
2021/10/06 08:09:54;;;;;;;4.55;2.33;;;14.60;1.00;;;;;;5073727;28;20210;-74
2021/10/06 08:12:21;;;;;;;10.73;3.15;;;14.60;1.00;;;;;;5072764;28;20295;-74
2021/10/06 08:14:50;;;;;;;7.15;2.67;;;14.70;1.00;;;;;;5069752;28;20267;-75
2021/10/06 08:17:17;;;;;;;6.82;2.42;;;14.70;1.00;;;;;;5069546;28;20202;-75
2021/10/06 08:19:46;;;;;;;12.38;3.38;;;14.70;1.00;;;;;;5071647;28;20206;-74
2021/10/06 08:22:13;;;;;;;9.15;3.08;;;14.70;1.00;;;;;;5073381;28;20290;-75
2021/10/06 08:24:40;;;;;;;7.55;3.20;;;14.80;1.00;;;;;;5075745;28;20197;-75
2021/10/06 08:27:08;;;;;;;9.63;3.17;;;14.90;1.00;;;;;;5072568;28;20199;-75
2021/10/06 08:29:35;;;;;;;10.07;3.70;;;15.00;1.00;;;;;;5073976;28;20260;-75
2021/10/06 08:32:04;;;;;;;7.85;3.13;;;15.10;1.00;;;;;;5071728;28;20239;-75
2021/10/06 08:34:31;;;;;;;8.10;2.53;;;15.30;1.00;;;;;;5076602;28;20209;-74
2021/10/06 08:36:57;;;;;;;7.30;2.72;;;15.40;1.00;;;;;;5077664;28;20202;-74
2021/10/06 08:39:25;;;;;;;9.65;3.13;;;15.40;1.00;;;;;;5075180;28;20625;-74
2021/10/06 08:41:52;;;;;;;6.25;2.28;;;15.60;1.00;;;;;;5066330;28;20249;-75
2021/10/06 08:44:22;;;;;;;10.35;2.55;;;16.00;1.00;;;;;;5070833;28;20672;-75
2021/10/06 08:46:49;;;;;;;3.50;2.03;;;16.20;1.00;;;;;;5078524;28;20255;-75
2021/10/06 08:49:17;;;;;;;4.32;2.00;;;16.20;1.00;;;;;;5072569;28;20234;-74
2021/10/06 08:51:44;;;;;;;7.63;2.30;;;16.10;1.00;;;;;;5074597;28;20266;-74
2021/10/06 08:54:11;;;;;;;12.05;2.90;;;16.00;1.00;;;;;;5069732;28;20255;-74
2021/10/06 08:56:38;;;;;;;7.93;2.72;;;16.00;1.00;;;;;;5078852;28;20727;-73
2021/10/06 08:59:05;;;;;;;7.65;2.90;;;16.30;1.00;;;;;;5078997;28;20209;-74
2021/10/06 09:01:32;;;;;;;6.13;2.75;;;16.60;1.00;;;;;;5070262;28;20591;-74
2021/10/06 09:04:01;;;;;;;8.82;2.67;;;16.50;1.00;;;;;;5074502;28;20256;-74
2021/10/06 09:06:35;;;;;;;9.55;2.53;;;16.40;1.00;;;;;;5072519;28;20202;-74
2021/10/06 09:09:13;;;;;;;6.32;2.10;;;16.40;1.00;;;;;;5072533;28;20217;-73
2021/10/06 09:11:40;;;;;;;7.28;2.63;;;16.50;1.00;;;;;;5071342;28;20205;-74
2021/10/06 09:14:08;;;;;;;10.55;2.83;;;16.40;1.00;;;;;;5070754;28;20202;-74
2021/10/06 09:16:37;;;;;;;5.53;2.55;;;16.40;1.00;;;;;;5067265;28;20690;-75
2021/10/06 09:19:04;;;;;;;5.57;2.33;;;16.40;1.00;;;;;;5068011;28;20674;-75
2021/10/06 09:21:36;;;;;;;11.30;2.50;;;16.60;99.90;;;;;;5071535;28;20665;-74
2021/10/06 09:24:05;;;;;;;13.35;2.20;;;16.70;1.00;;;;;;5071261;28;20677;-74
2021/10/06 09:26:32;;;;;;;7.30;1.83;;;16.60;99.90;;;;;;5069150;28;20665;-75
2021/10/06 09:28:59;;;;;;;8.43;2.67;;;16.60;99.90;;;;;;5078739;28;20234;-75
2021/10/06 09:31:28;;;;;;;4.93;1.77;;;16.40;99.90;;;;;;5082020;28;20586;-75
2021/10/06 09:33:58;;;;;;;6.20;1.83;;;16.10;99.90;;;;;;5076515;28;20681;-73
2021/10/06 09:36:28;;;;;;;5.32;1.58;;;16.40;99.90;;;;;;5076401;28;20221;-72
2021/10/06 09:38:58;;;;;;;7.75;1.75;;;16.50;99.90;;;;;;5077880;28;20669;-76
2021/10/06 09:41:34;;;;;;;9.02;2.05;;;16.90;99.90;;;;;;5073419;28;20263;-76
2021/10/06 09:44:05;;;;;;;7.47;1.58;;;17.50;99.90;;;;;;5080829;28;20201;-76
2021/10/06 09:46:44;;;;;;;5.88;2.30;;;18.30;99.90;;;;;;5072671;28;20202;-76
2021/10/06 09:49:18;;;;;;;6.68;1.95;;;18.60;99.90;;;;;;5079674;28;20234;-76
2021/10/06 09:52:14;;;;;;;4.00;1.63;;;18.80;99.90;;;;;;5080763;28;20210;-76
2021/10/06 09:54:48;;;;;;;6.82;2.20;;;19.00;99.90;;;;;;5077552;28;20555;-76
2021/10/06 09:57:24;;;;;;;4.97;2.10;;;19.70;99.90;;;;;;5070477;28;20292;-78
2021/10/06 09:59:51;;;;;;;11.45;2.10;;;20.40;99.90;;;;;;5074099;28;20216;-80
2021/10/06 10:02:19;;;;;;;5.25;1.65;;;20.10;99.90;;;;;;5069779;28;20206;-76
2021/10/06 10:04:46;;;;;;;4.47;1.48;;;19.50;99.90;;;;;;5070253;28;20289;-76
2021/10/06 10:07:13;;;;;;;5.50;1.73;;;19.10;99.90;;;;;;5069912;28;20202;-75
2021/10/06 10:09:43;;;;;;;11.52;2.00;;;18.70;99.90;;;;;;5070422;28;20279;-76
2021/10/06 10:12:10;;;;;;;6.00;2.13;;;18.10;99.90;;;;;;5069724;28;20252;-76
2021/10/06 10:14:39;;;;;;;6.13;1.98;;;17.80;99.90;;;;;;5069438;28;20715;-75
2021/10/06 10:17:06;;;;;;;5.15;1.73;;;17.60;99.90;;;;;;5069661;28;20559;-75
2021/10/06 10:19:33;;;;;;;6.20;2.33;;;17.40;99.90;;;;;;5070173;28;20210;-77
2021/10/06 10:22:03;;;;;;;3.08;1.48;;;17.20;99.90;;;;;;5070089;28;20666;-75
2021/10/06 10:24:30;;;;;;;5.65;1.58;;;17.10;99.90;;;;;;5069945;28;20202;-75
2021/10/06 10:27:02;;;;;;;6.68;1.55;;;17.00;99.90;;;;;;5064410;28;20248;-76
2021/10/06 10:29:34;;;;;;;14.23;1.92;;;17.70;99.90;;;;;;5066048;28;20238;-76
2021/10/06 10:32:03;;;;;;;6.85;1.95;;;18.20;99.90;;;;;;5069853;28;20202;-76
2021/10/06 10:35:06;;;;;;;7.60;1.60;;;18.10;99.90;;;;;;5065532;28;20233;-77
2021/10/06 10:38:23;;;;;;;5.25;2.53;;;17.90;99.90;;;;;;5077281;28;20209;-81
2021/10/06 10:40:54;;;;;;;4.90;1.88;;;17.80;99.90;;;;;;5068344;28;20577;-77
2021/10/06 10:43:24;;;;;;;8.95;1.60;;;17.60;99.90;;;;;;5075091;28;20651;-79
2021/10/06 10:46:03;;;;;;;4.82;2.15;;;17.70;99.90;;;;;;5075749;28;20264;-79
2021/10/06 10:48:32;;;;;;;6.68;1.42;;;18.00;99.90;;;;;;5075858;28;20275;-76
2021/10/06 10:51:08;;;;;;;3.90;1.40;;;18.30;99.90;;;;;;5082349;28;20585;-75
2021/10/06 10:54:01;;;;;;;4.78;1.80;;;17.90;99.90;;;;;;5082853;28;20613;-85
2021/10/06 10:56:43;;;;;;;7.50;1.73;;;17.60;99.90;;;;;;5076399;28;20255;-74
2021/10/06 10:59:12;;;;;;;10.00;2.75;;;17.40;99.90;;;;;;5081915;28;20202;-76
2021/10/06 11:01:48;;;;;;;11.93;5.25;;;17.20;99.90;;;;;;5084505;28;20202;-73
2021/10/06 11:04:20;;;;;;;7.68;1.85;;;17.20;99.90;;;;;;5090840;28;20205;-76
2021/10/06 11:06:50;;;;;;;7.47;2.13;;;17.50;99.90;;;;;;5092196;28;20263;-77
2021/10/06 11:09:40;;;;;;;7.18;1.73;;;18.40;99.90;;;;;;5088892;28;20610;-75
2021/10/06 11:12:36;;;;;;;3.92;1.48;;;19.40;99.90;;;;;;5090136;28;20241;-78
2021/10/06 11:15:35;;;;;;;10.13;3.30;;;19.30;99.90;;;;;;5073536;28;20260;-75
2021/10/06 11:18:24;;;;;;;4.68;2.50;;;19.10;99.90;;;;;;5078643;28;20208;-83
2021/10/06 11:20:58;;;;;;;9.13;3.00;;;18.70;99.90;;;;;;5088868;28;20677;-76
2021/10/06 11:23:49;;;;;;;9.05;2.42;;;18.50;99.90;;;;;;5090972;28;20215;-76
2021/10/06 11:26:19;;;;;;;4.93;1.73;;;18.20;99.90;;;;;;5086115;28;20205;-77
2021/10/06 11:28:48;;;;;;;5.25;1.67;;;18.00;99.90;;;;;;5090910;28;20365;-79
2021/10/06 11:31:21;;;;;;;9.60;2.03;;;18.50;99.90;;;;;;5085865;28;20598;-78
2021/10/06 11:33:48;;;;;;;5.68;1.58;;;18.90;99.90;;;;;;5082377;28;20197;-78
2021/10/06 11:36:18;;;;;;;6.13;1.95;;;19.30;99.90;;;;;;5088624;28;20248;-80
2021/10/06 11:38:47;;;;;;;4.35;2.13;;;19.40;99.90;;;;;;5072527;28;20207;-83
2021/10/06 11:41:15;;;;;;;3.30;1.33;;;19.90;99.90;;;;;;5067160;28;20271;-80
2021/10/06 11:43:45;;;;;;;7.65;1.83;;;20.10;99.90;;;;;;5065970;28;20260;-86
2021/10/06 11:46:19;;;;;;;7.00;1.67;;;19.20;99.90;;;;;;5071995;28;20210;-77
2021/10/06 11:48:55;;;;;;;5.60;1.33;;;18.50;99.90;;;;;;5059751;28;20225;-79
2021/10/06 11:51:36;;;;;;;7.30;1.80;;;18.20;99.90;;;;;;5072740;28;20210;-75
2021/10/06 11:54:03;;;;;;;9.90;2.40;;;17.90;99.90;;;;;;5072503;28;20267;-82
2021/10/06 11:56:31;;;;;;;6.65;1.83;;;17.70;99.90;;;;;;5072582;28;20257;-75
2021/10/06 11:59:06;;;;;;;5.32;1.13;;;18.10;99.90;;;;;;5072294;28;20206;-79
2021/10/06 12:01:35;;;;;;;6.18;1.38;;;18.60;99.90;;;;;;5072395;28;20210;-77
2021/10/06 12:04:16;;;;;;;4.65;1.40;;;19.10;99.90;;;;;;5071554;28;20627;-77
2021/10/06 12:06:45;;;;;;;13.48;1.75;;;19.50;99.90;;;;;;5071329;28;20206;-75
2021/10/06 12:09:14;;;;;;;21.67;3.35;;;19.10;99.90;;;;;;5066458;28;20254;-79
2021/10/06 12:11:43;;;;;;;7.55;1.60;;;18.80;99.90;;;;;;5079590;28;20665;-80
2021/10/06 12:14:22;;;;;;;7.63;1.83;;;19.00;99.90;;;;;;5081347;28;20206;-71
2021/10/06 12:17:03;;;;;;;5.97;1.38;;;18.90;99.90;;;;;;5082801;28;20209;-76
2021/10/06 12:19:31;;;;;;;5.15;1.92;;;19.10;99.90;;;;;;5075555;28;20259;-76
2021/10/06 12:21:59;;;;;;;5.80;1.80;;;19.10;99.90;;;;;;5070951;28;20209;-78
2021/10/06 12:24:27;;;;;;;3.30;1.52;;;18.90;99.90;;;;;;5075817;28;20210;-73
2021/10/06 12:26:55;;;;;;;7.68;1.90;;;18.60;99.90;;;;;;5074948;28;20210;-70
2021/10/06 12:29:24;;;;;;;6.43;1.83;;;19.00;99.90;;;;;;5077209;28;20238;-73
2021/10/06 12:31:55;;;;;;;2.80;0.93;;;19.20;99.90;;;;;;5078331;28;20202;-70
2021/10/06 12:34:25;;;;;;;4.65;1.45;;;19.00;99.90;;;;;;5072379;28;20210;-72
2021/10/06 12:36:55;;;;;;;7.50;1.73;;;18.70;99.90;;;;;;5072122;28;20202;-74
2021/10/06 12:39:25;;;;;;;5.28;2.45;;;18.50;99.90;;;;;;5055751;28;20206;-70
2021/10/06 12:41:54;;;;;;;6.97;1.92;;;18.70;99.90;;;;;;5068136;28;20217;-74
2021/10/06 12:44:27;;;;;;;5.75;1.52;;;18.80;99.90;;;;;;5070635;28;20588;-69
2021/10/06 12:46:56;;;;;;;5.35;1.40;;;18.60;99.90;;;;;;5075028;28;20267;-74
2021/10/06 12:49:26;;;;;;;5.35;1.15;;;18.90;99.90;;;;;;5072058;28;20287;-75
2021/10/06 12:51:59;;;;;;;5.90;2.30;;;19.10;99.90;;;;;;5070949;28;20205;-74
2021/10/06 12:54:29;;;;;;;5.10;1.90;;;19.30;99.90;;;;;;5071022;28;20224;-71
2021/10/06 12:56:58;;;;;;;6.18;1.40;;;19.10;99.90;;;;;;5075013;28;20206;-72
2021/10/06 12:59:34;;;;;;;4.82;1.30;;;19.00;99.90;;;;;;5071610;28;20206;-73
2021/10/06 13:02:03;;;;;;;3.55;1.38;;;19.00;99.90;;;;;;5070479;28;20908;-71